Coleman, Texas
Current Conditions -  °F | °C
As of 4:35 AM on Sunday 21 Dec 2014 (Local Time) from KCOM Reporting Station
Haze Haze  
Wind Chill: 41°   Ceiling: 700
Heat Index: 45°   Visibility: 4mi
Dew Point: 45°   Wind: 7mph
Humidity: 98%   Direction: 180°S
Pressure: 30.06"   Gusts: NA
Location:  31.83°N, 99.43°W
Report Text: KCOM 211035Z AUTO 18006KT 4SM BR OVC007 07/07 A3006 RMK AO2 T00730070
Loading
Personal Weather Stations






























Interactive Weather Map New forecast layout! Learn more

10-Day Weather Forecast

Advertisements
Track Severe Weather on mobile